createdAt,value
2019-04-30T00:01:18.868Z,29.33
2019-04-30T00:03:59.097Z,29.60
2019-04-30T00:06:27.410Z,28.87
2019-04-30T00:08:57.722Z,28.70
2019-04-30T00:11:25.915Z,31.17
2019-04-30T00:13:58.578Z,29.67
2019-04-30T00:16:25.290Z,30.20
2019-04-30T00:18:58.230Z,31.33
2019-04-30T00:21:25.051Z,30.57
2019-04-30T00:23:53.656Z,30.30
2019-04-30T00:26:22.226Z,31.83
2019-04-30T00:28:50.814Z,30.70
2019-04-30T00:31:23.871Z,30.97
2019-04-30T00:33:52.659Z,30.77
2019-04-30T00:36:19.768Z,30.17
2019-04-30T00:38:48.424Z,28.60
2019-04-30T00:41:17.082Z,30.77
2019-04-30T00:43:49.660Z,27.87
2019-04-30T00:46:17.325Z,28.90
2019-04-30T00:48:46.261Z,29.20
2019-04-30T00:51:20.991Z,30.97
2019-04-30T00:53:51.371Z,29.73
2019-04-30T00:56:15.855Z,28.87
2019-04-30T00:58:45.824Z,28.73
2019-04-30T01:01:25.300Z,28.93
2019-04-30T01:03:58.278Z,27.30
2019-04-30T01:06:28.599Z,27.23
2019-04-30T01:09:04.500Z,27.50
2019-04-30T01:11:27.577Z,28.63
2019-04-30T01:13:56.174Z,26.57
2019-04-30T01:16:30.184Z,25.53
2019-04-30T01:18:55.057Z,26.50
2019-04-30T01:21:23.628Z,27.30
2019-04-30T01:23:54.767Z,25.40
2019-04-30T01:26:27.749Z,27.90
2019-04-30T01:28:58.522Z,26.63
2019-04-30T01:31:24.654Z,26.47
2019-04-30T01:33:53.239Z,28.63
2019-04-30T01:36:21.819Z,27.50
2019-04-30T01:38:52.352Z,28.03
2019-04-30T01:41:27.580Z,27.23
2019-04-30T01:43:50.993Z,30.43
2019-04-30T01:46:20.985Z,30.57
2019-04-30T01:48:51.948Z,28.77
2019-04-30T01:51:21.808Z,29.07
2019-04-30T01:53:50.165Z,27.97
2019-04-30T01:56:20.302Z,28.87
2019-04-30T01:58:56.165Z,28.83
2019-04-30T02:01:26.310Z,30.03
2019-04-30T02:03:54.886Z,30.43
2019-04-30T02:06:23.459Z,30.40
2019-04-30T02:08:51.978Z,29.10
2019-04-30T02:11:20.477Z,27.57
2019-04-30T02:13:49.414Z,29.03
2019-04-30T02:16:18.770Z,28.90
2019-04-30T02:18:49.432Z,30.63
2019-04-30T02:21:19.550Z,30.53
2019-04-30T02:23:49.345Z,30.70
2019-04-30T02:26:18.726Z,31.57
2019-04-30T02:28:49.373Z,30.50
2019-04-30T02:31:19.434Z,30.37
2019-04-30T02:33:50.232Z,31.23
2019-04-30T02:36:20.571Z,29.80
2019-04-30T02:38:53.637Z,29.27
2019-04-30T02:41:23.936Z,30.03
2019-04-30T02:43:55.718Z,31.87
2019-04-30T02:46:26.096Z,32.03
2019-04-30T02:48:59.509Z,31.97
2019-04-30T02:51:30.110Z,33.50
2019-04-30T02:54:15.775Z,32.43
2019-04-30T02:56:46.057Z,32.40
2019-04-30T02:59:14.639Z,31.17
2019-04-30T03:01:43.223Z,32.07
2019-04-30T03:04:11.796Z,30.57
2019-04-30T03:06:40.697Z,31.23
2019-04-30T03:09:10.313Z,32.37
2019-04-30T03:11:40.625Z,31.20
2019-04-30T03:14:10.230Z,31.10
2019-04-30T03:16:56.100Z,29.27
2019-04-30T03:19:29.567Z,30.23
2019-04-30T03:22:10.155Z,30.40
2019-04-30T03:24:39.793Z,29.70
2019-04-30T03:27:09.614Z,29.03
2019-04-30T03:29:40.482Z,29.83
2019-04-30T03:32:13.560Z,29.17
2019-04-30T03:34:42.015Z,30.20
2019-04-30T03:37:09.987Z,29.53
2019-04-30T03:39:39.931Z,28.63
2019-04-30T03:42:09.900Z,31.10
2019-04-30T03:44:39.990Z,30.73
2019-04-30T03:47:10.854Z,29.13
2019-04-30T03:49:40.371Z,29.10
2019-04-30T03:52:10.109Z,30.27
2019-04-30T03:54:40.885Z,30.23
2019-04-30T03:57:10.708Z,30.23
2019-04-30T03:59:39.911Z,30.93
2019-04-30T04:02:13.143Z,31.70
2019-04-30T04:05:01.074Z,29.90
2019-04-30T04:07:41.546Z,30.27
2019-04-30T04:10:11.832Z,28.93
2019-04-30T04:12:40.406Z,29.97
2019-04-30T04:15:10.449Z,31.43
2019-04-30T04:17:39.848Z,31.17
2019-04-30T04:20:10.558Z,32.87
2019-04-30T04:22:40.339Z,31.07
2019-04-30T04:25:12.745Z,31.63
2019-04-30T04:27:39.410Z,31.03
2019-04-30T04:30:10.681Z,32.07
2019-04-30T04:32:40.623Z,32.07
2019-04-30T04:35:09.891Z,32.37
2019-04-30T04:37:39.501Z,32.17
2019-04-30T04:40:09.337Z,29.37
2019-04-30T04:42:39.568Z,32.73
2019-04-30T04:45:09.961Z,32.13
2019-04-30T04:47:40.196Z,32.43
2019-04-30T04:50:10.430Z,30.37
2019-04-30T04:52:39.682Z,32.07
2019-04-30T04:55:10.202Z,31.93
2019-04-30T04:57:40.008Z,31.53
2019-04-30T05:00:10.622Z,31.33
2019-04-30T05:02:43.450Z,29.70
2019-04-30T05:05:12.104Z,30.80
2019-04-30T05:07:40.669Z,31.67
2019-04-30T05:10:09.513Z,31.97
2019-04-30T05:12:39.801Z,31.47
2019-04-30T05:15:09.531Z,30.53
2019-04-30T05:17:39.848Z,29.93
2019-04-30T05:20:10.047Z,29.47
2019-04-30T05:22:39.019Z,29.17
2019-04-30T05:25:09.033Z,29.53
2019-04-30T05:27:39.207Z,28.57
2019-04-30T05:30:12.069Z,26.27
2019-04-30T05:32:39.905Z,25.90
2019-04-30T05:35:09.521Z,25.63
2019-04-30T05:37:38.468Z,25.07
2019-04-30T05:40:09.115Z,23.97
2019-04-30T05:42:38.739Z,25.97
2019-04-30T05:45:09.396Z,24.57
2019-04-30T05:47:38.882Z,27.13
2019-04-30T05:50:08.906Z,26.00
2019-04-30T05:52:39.516Z,25.13
2019-04-30T05:55:08.688Z,24.23
2019-04-30T05:57:40.825Z,24.20
2019-04-30T06:00:09.933Z,25.33
2019-04-30T06:02:39.898Z,25.57
2019-04-30T06:05:09.175Z,25.97
2019-04-30T06:07:39.399Z,25.03
2019-04-30T06:10:10.229Z,24.30
2019-04-30T06:12:40.513Z,24.00
2019-04-30T06:15:13.730Z,24.70
2019-04-30T06:17:43.991Z,24.30
2019-04-30T06:20:18.312Z,24.43
2019-04-30T06:22:43.090Z,25.13
2019-04-30T06:25:11.815Z,24.43
2019-04-30T06:27:40.732Z,24.30
2019-04-30T06:30:12.072Z,24.10
2019-04-30T06:32:39.938Z,24.83
2019-04-30T06:35:09.369Z,23.97
2019-04-30T06:37:39.043Z,23.73
2019-04-30T06:40:09.392Z,23.43
2019-04-30T06:42:39.395Z,25.77
2019-04-30T06:45:09.228Z,24.33
2019-04-30T06:47:38.922Z,25.97
2019-04-30T06:50:11.233Z,26.17
2019-04-30T06:52:39.733Z,27.57
2019-04-30T06:55:13.499Z,28.47
2019-04-30T06:57:42.600Z,25.43
2019-04-30T07:00:12.558Z,26.43
2019-04-30T07:02:43.740Z,24.83
2019-04-30T07:05:13.101Z,25.53
2019-04-30T07:07:43.358Z,26.10
2019-04-30T07:10:17.205Z,28.50
2019-04-30T07:12:54.189Z,27.03
2019-04-30T07:15:22.711Z,27.67
2019-04-30T07:17:52.061Z,28.83
2019-04-30T07:20:20.726Z,28.83
2019-04-30T07:22:53.847Z,28.93
2019-04-30T07:25:19.665Z,27.67
2019-04-30T07:27:50.548Z,29.27
2019-04-30T07:30:19.248Z,30.63
2019-04-30T07:32:48.776Z,32.23
2019-04-30T07:35:19.438Z,30.10
2019-04-30T07:37:49.498Z,34.20
2019-04-30T07:40:19.021Z,33.37
2019-04-30T07:42:49.315Z,33.07
2019-04-30T07:45:19.460Z,34.00
2019-04-30T07:47:49.443Z,34.77
2019-04-30T07:50:21.138Z,34.37
2019-04-30T07:53:01.641Z,35.67
2019-04-30T07:55:19.632Z,34.40
2019-04-30T07:57:50.612Z,37.03
2019-04-30T08:00:19.426Z,33.37
2019-04-30T08:02:55.459Z,32.37
2019-04-30T08:05:25.697Z,32.23
2019-04-30T08:07:54.347Z,32.30
2019-04-30T08:10:23.041Z,32.57
2019-04-30T08:12:51.758Z,34.17
2019-04-30T08:15:20.754Z,33.53
2019-04-30T08:18:02.189Z,33.27
2019-04-30T08:20:19.814Z,33.17
2019-04-30T08:22:49.451Z,33.73
2019-04-30T08:25:19.792Z,34.17
2019-04-30T08:27:49.312Z,32.37
2019-04-30T08:30:26.234Z,32.33
2019-04-30T08:32:49.929Z,33.63
2019-04-30T08:35:19.747Z,36.03
2019-04-30T08:37:49.682Z,35.37
2019-04-30T08:40:19.087Z,32.53
2019-04-30T08:42:49.622Z,32.77
2019-04-30T08:45:19.713Z,33.00
2019-04-30T08:47:49.345Z,33.13
2019-04-30T08:50:19.907Z,30.63
2019-04-30T08:52:49.844Z,32.90
2019-04-30T08:55:22.001Z,32.90
2019-04-30T08:57:50.032Z,32.00
2019-04-30T09:00:20.345Z,31.40
2019-04-30T09:02:49.299Z,31.57
2019-04-30T09:05:34.723Z,33.20
2019-04-30T09:08:04.161Z,32.03
2019-04-30T09:10:32.679Z,31.43
2019-04-30T09:13:01.254Z,31.27
2019-04-30T09:15:29.911Z,29.00
2019-04-30T09:18:03.481Z,29.60
2019-04-30T09:20:29.188Z,30.77
2019-04-30T09:22:59.561Z,30.40
2019-04-30T09:25:28.667Z,31.90
2019-04-30T09:27:58.783Z,31.93
2019-04-30T09:30:27.454Z,31.13
2019-04-30T09:32:56.030Z,29.43
2019-04-30T09:35:24.597Z,32.50
2019-04-30T09:37:59.003Z,29.53
2019-04-30T09:40:23.461Z,30.80
2019-04-30T09:42:51.978Z,29.90
2019-04-30T09:45:20.547Z,30.67
2019-04-30T09:47:50.548Z,30.97
2019-04-30T09:50:19.373Z,30.77
2019-04-30T09:52:49.740Z,28.40
2019-04-30T09:55:19.352Z,31.67
2019-04-30T09:57:48.858Z,30.63
2019-04-30T10:00:19.416Z,31.13
2019-04-30T10:02:48.848Z,28.57
2019-04-30T10:05:19.197Z,28.67
2019-04-30T10:07:49.311Z,28.73
2019-04-30T10:10:20.047Z,30.47
2019-04-30T10:12:49.885Z,30.53
2019-04-30T10:15:20.078Z,27.87
2019-04-30T10:17:50.436Z,30.83
2019-04-30T10:20:22.092Z,28.63
2019-04-30T10:22:50.677Z,28.03
2019-04-30T10:25:19.256Z,26.00
2019-04-30T10:27:49.750Z,27.37
2019-04-30T10:30:21.521Z,24.47
2019-04-30T10:32:50.112Z,25.27
2019-04-30T10:35:20.367Z,24.97
2019-04-30T10:37:50.541Z,24.53
2019-04-30T10:40:20.336Z,24.70
2019-04-30T10:42:49.056Z,26.43
2019-04-30T10:45:18.601Z,27.37
2019-04-30T10:47:49.127Z,24.87
2019-04-30T10:50:17.634Z,23.03
2019-04-30T10:52:46.162Z,22.73
2019-04-30T10:55:14.876Z,22.87
2019-04-30T10:57:43.461Z,22.47
2019-04-30T11:00:18.593Z,22.20
2019-04-30T11:02:47.257Z,20.97
2019-04-30T11:05:15.895Z,20.70
2019-04-30T11:07:44.549Z,21.60
2019-04-30T11:10:13.462Z,22.00
2019-04-30T11:12:42.839Z,22.53
2019-04-30T11:15:11.642Z,22.07
2019-04-30T11:17:40.256Z,20.83
2019-04-30T11:20:10.272Z,20.57
2019-04-30T11:22:39.178Z,19.97
2019-04-30T11:25:09.762Z,18.73
2019-04-30T11:27:40.407Z,20.47
2019-04-30T11:30:18.430Z,21.50
2019-04-30T11:32:39.119Z,21.43
2019-04-30T11:35:08.121Z,21.20
2019-04-30T11:37:36.774Z,19.73
2019-04-30T11:40:08.179Z,20.57
2019-04-30T11:42:36.842Z,18.00
2019-04-30T11:45:08.596Z,17.83
2019-04-30T11:47:38.779Z,17.07
2019-04-30T11:50:09.754Z,17.23
2019-04-30T11:52:38.404Z,16.93
2019-04-30T11:55:09.775Z,14.40
2019-04-30T11:57:39.826Z,16.10
2019-04-30T12:00:14.282Z,16.70
2019-04-30T12:02:42.946Z,17.17
2019-04-30T12:05:13.046Z,18.43
2019-04-30T12:07:45.903Z,17.13
2019-04-30T12:10:19.355Z,16.50
2019-04-30T12:12:48.716Z,17.37
2019-04-30T12:15:19.099Z,16.83
2019-04-30T12:17:47.873Z,16.33
2019-04-30T12:20:19.710Z,16.20
2019-04-30T12:22:49.319Z,14.27
2019-04-30T12:25:18.740Z,15.30
2019-04-30T12:27:48.793Z,16.60
2019-04-30T12:30:20.755Z,15.90
2019-04-30T12:32:49.439Z,16.07
2019-04-30T12:35:18.623Z,15.50
2019-04-30T12:37:49.327Z,14.93
2019-04-30T12:40:26.675Z,14.43
2019-04-30T12:42:48.684Z,14.73
2019-04-30T12:45:19.321Z,12.93
2019-04-30T12:47:49.345Z,14.07
2019-04-30T12:50:19.791Z,14.87
2019-04-30T12:53:02.225Z,14.70
2019-04-30T12:55:39.201Z,14.83
2019-04-30T12:58:09.725Z,14.70
2019-04-30T13:00:39.197Z,14.67
2019-04-30T13:03:07.852Z,16.77
2019-04-30T13:05:36.421Z,15.03
2019-04-30T13:08:05.475Z,15.17
2019-04-30T13:10:34.902Z,15.73
2019-04-30T13:13:04.206Z,15.47
2019-04-30T13:15:33.128Z,13.57
2019-04-30T13:18:01.713Z,14.90
2019-04-30T13:20:30.327Z,17.40
2019-04-30T13:22:58.997Z,16.77
2019-04-30T13:25:34.779Z,16.37
2019-04-30T13:28:03.768Z,16.63
2019-04-30T13:30:32.398Z,16.33
2019-04-30T13:33:14.422Z,15.00
2019-04-30T13:35:43.082Z,16.90
2019-04-30T13:38:14.750Z,16.83
2019-04-30T13:40:44.961Z,16.80
2019-04-30T13:43:15.109Z,15.83
2019-04-30T13:45:43.608Z,16.47
2019-04-30T13:48:13.129Z,16.27
2019-04-30T13:50:41.694Z,16.23
2019-04-30T13:53:10.277Z,19.03
2019-04-30T13:55:45.501Z,18.40
2019-04-30T13:58:09.079Z,19.43
2019-04-30T14:00:39.558Z,18.40
2019-04-30T14:03:25.877Z,18.23
2019-04-30T14:05:54.445Z,18.70
2019-04-30T14:08:24.613Z,18.23
2019-04-30T14:10:53.251Z,18.67
2019-04-30T14:13:22.390Z,18.83
2019-04-30T14:15:51.084Z,19.00
2019-04-30T14:18:28.611Z,18.93
2019-04-30T14:20:49.866Z,18.90
2019-04-30T14:23:18.657Z,18.97
2019-04-30T14:25:56.372Z,18.97
2019-04-30T14:28:19.090Z,18.93
2019-04-30T14:30:47.675Z,18.77
2019-04-30T14:33:24.269Z,19.70
2019-04-30T14:35:46.551Z,19.63
2019-04-30T14:38:15.282Z,19.07
2019-04-30T14:40:44.275Z,19.13
2019-04-30T14:43:21.279Z,18.60
2019-04-30T14:46:10.023Z,18.60
2019-04-30T14:48:55.437Z,19.93
2019-04-30T14:51:24.627Z,18.00
2019-04-30T14:53:58.876Z,19.33
2019-04-30T14:56:34.769Z,18.30
2019-04-30T14:59:07.737Z,18.07
2019-04-30T15:01:51.689Z,18.33
2019-04-30T15:04:20.562Z,19.47
2019-04-30T15:06:49.383Z,17.93
2019-04-30T15:09:18.468Z,19.17
2019-04-30T15:11:48.689Z,20.23
2019-04-30T15:14:17.454Z,18.27
2019-04-30T15:16:46.049Z,18.20
2019-04-30T15:19:14.546Z,19.63
2019-04-30T15:21:43.145Z,18.50
2019-04-30T15:24:13.366Z,19.10
2019-04-30T15:26:41.941Z,18.57
2019-04-30T15:29:14.403Z,20.30
2019-04-30T15:31:42.635Z,18.20
2019-04-30T15:34:13.090Z,19.07
2019-04-30T15:36:41.791Z,18.53
2019-04-30T15:39:30.650Z,17.13
2019-04-30T15:41:58.062Z,17.60
2019-04-30T15:44:26.634Z,17.77
2019-04-30T15:46:55.359Z,18.50
2019-04-30T15:49:23.939Z,18.43
2019-04-30T15:51:52.501Z,18.17
2019-04-30T15:54:21.210Z,18.40
2019-04-30T15:56:49.789Z,17.63
2019-04-30T15:59:19.999Z,17.80
2019-04-30T16:01:55.982Z,16.87
2019-04-30T16:04:44.120Z,16.50
2019-04-30T16:07:12.777Z,16.20
2019-04-30T16:09:49.044Z,15.03
2019-04-30T16:12:22.364Z,14.90
2019-04-30T16:14:50.929Z,15.80
2019-04-30T16:17:23.815Z,13.77
2019-04-30T16:19:52.386Z,15.77
2019-04-30T16:22:21.323Z,15.43
2019-04-30T16:24:49.961Z,16.37
2019-04-30T16:27:19.160Z,14.97
2019-04-30T16:29:49.713Z,15.90
2019-04-30T16:32:18.793Z,16.50
2019-04-30T16:34:49.429Z,16.57
2019-04-30T16:37:19.955Z,16.93
2019-04-30T16:39:47.822Z,16.17
2019-04-30T16:42:16.418Z,18.00
2019-04-30T16:44:44.918Z,17.60
2019-04-30T16:47:16.786Z,16.40
2019-04-30T16:49:43.744Z,17.13
2019-04-30T16:52:12.377Z,17.83
2019-04-30T16:54:40.954Z,16.73
2019-04-30T16:57:10.284Z,16.13
2019-04-30T16:59:40.634Z,16.33
2019-04-30T17:02:10.414Z,16.53
2019-04-30T17:04:49.662Z,16.53
2019-04-30T17:07:38.692Z,15.77
2019-04-30T17:10:14.922Z,16.53
2019-04-30T17:12:53.741Z,15.37
2019-04-30T17:15:23.977Z,16.00
2019-04-30T17:17:52.506Z,16.30
2019-04-30T17:20:21.259Z,15.67
2019-04-30T17:22:50.417Z,15.77
2019-04-30T17:25:19.097Z,16.07
2019-04-30T17:27:47.702Z,15.40
2019-04-30T17:30:19.188Z,16.40
2019-04-30T17:32:47.849Z,16.03
2019-04-30T17:35:19.053Z,16.17
2019-04-30T17:37:47.754Z,15.17
2019-04-30T17:40:16.574Z,16.03
2019-04-30T17:42:45.087Z,15.70
2019-04-30T17:45:14.930Z,16.17
2019-04-30T17:47:43.456Z,15.70
2019-04-30T17:50:12.566Z,16.00
2019-04-30T17:52:41.149Z,15.50
2019-04-30T17:55:09.932Z,15.53
2019-04-30T17:57:40.337Z,16.73
2019-04-30T18:00:18.914Z,16.27
2019-04-30T18:02:42.181Z,16.17
2019-04-30T18:05:11.335Z,16.93
2019-04-30T18:07:40.206Z,15.80
2019-04-30T18:10:13.980Z,16.50
2019-04-30T18:12:42.631Z,16.23
2019-04-30T18:15:16.538Z,16.03
2019-04-30T18:17:46.913Z,16.10
2019-04-30T18:20:20.297Z,16.20
2019-04-30T18:22:50.609Z,16.30
2019-04-30T18:25:29.780Z,15.83
2019-04-30T18:28:02.790Z,16.53
2019-04-30T18:30:33.073Z,15.40
2019-04-30T18:33:01.734Z,18.57
2019-04-30T18:35:30.293Z,17.67
2019-04-30T18:37:58.813Z,16.20
2019-04-30T18:40:29.467Z,16.33
2019-04-30T18:42:59.357Z,17.23
2019-04-30T18:45:28.869Z,15.63
2019-04-30T18:47:59.448Z,17.30
2019-04-30T18:50:27.686Z,19.50
2019-04-30T18:52:58.699Z,18.40
2019-04-30T18:55:27.532Z,17.50
2019-04-30T18:57:57.114Z,17.73
2019-04-30T19:00:34.106Z,17.23
2019-04-30T19:03:02.618Z,16.87
2019-04-30T19:05:31.258Z,18.27
2019-04-30T19:08:07.276Z,17.60
2019-04-30T19:10:46.421Z,18.27
2019-04-30T19:13:18.922Z,18.93
2019-04-30T19:16:19.722Z,18.47
2019-04-30T19:18:38.394Z,17.97
2019-04-30T19:21:09.087Z,18.40
2019-04-30T19:23:39.066Z,18.87
2019-04-30T19:26:07.805Z,18.83
2019-04-30T19:28:38.479Z,19.43
2019-04-30T19:31:09.219Z,18.77
2019-04-30T19:33:38.821Z,19.40
2019-04-30T19:36:09.636Z,18.97
2019-04-30T19:38:37.865Z,18.50
2019-04-30T19:41:06.434Z,20.27
2019-04-30T19:43:35.030Z,19.70
2019-04-30T19:46:03.639Z,19.77
2019-04-30T19:48:32.197Z,20.70
2019-04-30T19:51:00.689Z,20.63
2019-04-30T19:53:30.382Z,20.47
2019-04-30T19:55:59.053Z,20.80
2019-04-30T19:58:44.965Z,20.50
2019-04-30T20:00:59.473Z,20.60
2019-04-30T20:03:29.281Z,21.20
2019-04-30T20:05:58.632Z,21.70
2019-04-30T20:08:28.709Z,21.80
2019-04-30T20:10:59.173Z,22.87
2019-04-30T20:13:35.687Z,23.10
2019-04-30T20:15:59.409Z,22.70
2019-04-30T20:18:29.247Z,24.73
2019-04-30T20:21:01.226Z,22.97
2019-04-30T20:23:29.977Z,23.37
2019-04-30T20:25:58.567Z,24.77
2019-04-30T20:28:38.586Z,23.30
2019-04-30T20:30:57.373Z,25.03
2019-04-30T20:33:25.921Z,24.40
2019-04-30T20:35:54.465Z,25.73
2019-04-30T20:38:27.296Z,25.67
2019-04-30T20:41:00.321Z,24.60
2019-04-30T20:43:26.093Z,26.70
2019-04-30T20:45:54.625Z,26.77
2019-04-30T20:48:23.261Z,26.40
2019-04-30T20:50:51.843Z,28.03
2019-04-30T20:53:20.445Z,26.77
2019-04-30T20:55:49.517Z,29.43
2019-04-30T20:58:18.134Z,30.63
2019-04-30T21:00:59.836Z,29.67
2019-04-30T21:03:17.007Z,30.77
2019-04-30T21:05:45.505Z,31.47
2019-04-30T21:08:14.102Z,32.30
2019-04-30T21:10:42.590Z,30.43
2019-04-30T21:13:11.305Z,33.50
2019-04-30T21:15:39.880Z,33.93
2019-04-30T21:18:09.455Z,33.90
2019-04-30T21:20:38.822Z,32.07
2019-04-30T21:23:09.310Z,33.87
2019-04-30T21:25:38.736Z,34.10
2019-04-30T21:28:09.593Z,34.83
2019-04-30T21:30:37.729Z,33.63
2019-04-30T21:33:13.990Z,33.43
2019-04-30T21:35:44.210Z,35.33
2019-04-30T21:38:12.797Z,34.73
2019-04-30T21:40:41.298Z,33.20
2019-04-30T21:43:09.866Z,34.37
2019-04-30T21:45:39.893Z,35.00
2019-04-30T21:48:09.175Z,34.93
2019-04-30T21:50:39.752Z,36.70
2019-04-30T21:53:09.914Z,34.90
2019-04-30T21:55:39.833Z,36.03
2019-04-30T21:58:09.567Z,36.03
2019-04-30T22:00:42.741Z,37.47
2019-04-30T22:03:11.376Z,36.07
2019-04-30T22:05:40.110Z,37.67
2019-04-30T22:08:09.211Z,36.13
2019-04-30T22:10:37.912Z,38.20
2019-04-30T22:13:08.768Z,39.40
2019-04-30T22:15:36.784Z,38.97
2019-04-30T22:18:05.277Z,39.07
2019-04-30T22:20:33.805Z,37.87
2019-04-30T22:23:02.389Z,37.90
2019-04-30T22:25:30.976Z,37.57
2019-04-30T22:27:59.478Z,38.13
2019-04-30T22:30:27.998Z,39.53
2019-04-30T22:32:59.324Z,39.67
2019-04-30T22:35:28.488Z,37.73
2019-04-30T22:38:09.143Z,39.17
2019-04-30T22:40:39.266Z,40.80
2019-04-30T22:43:09.335Z,39.00
2019-04-30T22:45:45.325Z,39.40
2019-04-30T22:48:13.899Z,40.00
2019-04-30T22:50:42.486Z,41.10
2019-04-30T22:53:10.980Z,40.00
2019-04-30T22:55:39.493Z,39.20
2019-04-30T22:58:07.996Z,40.77
2019-04-30T23:00:43.987Z,41.60
2019-04-30T23:03:14.338Z,40.90
2019-04-30T23:05:43.003Z,43.03
2019-04-30T23:08:11.637Z,42.67
2019-04-30T23:10:40.222Z,42.50
2019-04-30T23:13:08.809Z,42.70
2019-04-30T23:15:37.499Z,44.10
2019-04-30T23:18:06.154Z,41.83
2019-04-30T23:20:34.750Z,44.40
2019-04-30T23:23:03.312Z,44.83
2019-04-30T23:25:31.966Z,43.93
2019-04-30T23:28:00.485Z,44.60
2019-04-30T23:30:29.060Z,44.87
2019-04-30T23:32:57.629Z,42.10
2019-04-30T23:35:26.295Z,42.97
2019-04-30T23:37:55.031Z,44.07
2019-04-30T23:40:28.789Z,43.83
2019-04-30T23:42:57.483Z,46.80
2019-04-30T23:45:26.420Z,45.07
2019-04-30T23:47:55.049Z,46.50
2019-04-30T23:50:23.588Z,47.43
2019-04-30T23:52:52.242Z,45.20
2019-04-30T23:55:20.939Z,45.97
2019-04-30T23:57:49.720Z,48.90
